| DS18B20 | SHTC3 | ||||||
|---|---|---|---|---|---|---|---|
| ID | Date d/m/Y & Time | data1 สูง | data2 ต่ำ | data3 นอก | temp pcb | hum pcb | Time |
| 8324 | 03/04/2026 05:12:47 | 27.4  | 27.4  | 25.4  | 27.2  | 72.7  | 05:12 |
| 8323 | 03/04/2026 05:08:06 | 27.4  | 27.4  | 25.4  | 27.2  | 72.7  | 05:08 |
| 8322 | 03/04/2026 05:03:25 | 27.4  | 27.4  | 25.1  | 27.2  | 72.7  | 05:03 |
| 8321 | 03/04/2026 04:58:43 | 27.4  | 27.5  | 25.2  | 27.4  | 72.7  | 04:58 |
| 8320 | 03/04/2026 04:54:01 | 27.5  | 27.5  | 25.0  | 27.2  | 72.6  | 04:54 |
| 8319 | 03/04/2026 04:49:19 | 27.5  | 27.6  | 25.4  | 27.4  | 72.6  | 04:49 |
| 8318 | 03/04/2026 04:44:38 | 27.5  | 27.6  | 25.7  | 27.3  | 72.6  | 04:44 |
| 8317 | 03/04/2026 04:39:56 | 27.6  | 27.6  | 25.7  | 27.5  | 72.8  | 04:39 |
| 8316 | 03/04/2026 04:35:14 | 27.6  | 27.6  | 25.7  | 27.4  | 72.6  | 04:35 |
| 8315 | 03/04/2026 04:30:32 | 27.6  | 27.6  | 25.9  | 27.4  | 72.6  | 04:30 |
| 8314 | 03/04/2026 04:25:50 | 27.6  | 27.7  | 25.7  | 27.5  | 72.5  | 04:25 |
| 8313 | 03/04/2026 04:21:08 | 27.6  | 27.7  | 25.6  | 27.4  | 72.5  | 04:21 |
| 8312 | 03/04/2026 04:16:26 | 27.7  | 27.8  | 25.5  | 27.6  | 72.5  | 04:16 |
| 8311 | 03/04/2026 04:11:44 | 27.7  | 27.8  | 25.6  | 27.4  | 72.5  | 04:11 |
| 8310 | 03/04/2026 04:07:03 | 27.8  | 27.8  | 25.6  | 27.6  | 72.6  | 04:07 |
| 8309 | 03/04/2026 04:02:20 | 27.8  | 27.8  | 25.5  | 27.5  | 72.5  | 04:02 |
| 8308 | 03/04/2026 03:57:39 | 27.8  | 27.8  | 25.4  | 27.6  | 72.4  | 03:57 |
| 8307 | 03/04/2026 03:52:57 | 27.8  | 27.9  | 25.7  | 27.7  | 72.5  | 03:52 |
| 8306 | 03/04/2026 03:48:15 | 27.8  | 27.9  | 25.5  | 27.7  | 72.4  | 03:48 |
| 8305 | 03/04/2026 03:43:33 | 27.9  | 27.9  | 25.5  | 27.7  | 72.4  | 03:43 |
| 8304 | 03/04/2026 03:38:51 | 27.9  | 27.9  | 25.7  | 27.7  | 72.4  | 03:38 |
| 8303 | 03/04/2026 03:34:09 | 27.9  | 27.9  | 25.6  | 27.6  | 72.3  | 03:34 |
| 8302 | 03/04/2026 03:29:28 | 27.9  | 28.0  | 25.7  | 27.7  | 72.4  | 03:29 |
| 8301 | 03/04/2026 03:24:46 | 27.9  | 28.0  | 26.2  | 27.8  | 72.4  | 03:24 |